sensor_id;sensor_type;location;lat;lon;timestamp;P1;durP1;ratioP1;P2;durP2;ratioP2
2452;SDS011;63678;47.994;7.854;2023-04-03T00:01:02;8.60;;;6.10;;
2452;SDS011;63678;47.994;7.854;2023-04-03T00:03:35;8.65;;;6.30;;
2452;SDS011;63678;47.994;7.854;2023-04-03T00:06:08;9.80;;;6.93;;
2452;SDS011;63678;47.994;7.854;2023-04-03T00:08:45;8.82;;;5.80;;
2452;SDS011;63678;47.994;7.854;2023-04-03T00:11:17;9.48;;;6.22;;
2452;SDS011;63678;47.994;7.854;2023-04-03T00:13:51;12.40;;;6.10;;
2452;SDS011;63678;47.994;7.854;2023-04-03T00:16:23;8.57;;;6.15;;
2452;SDS011;63678;47.994;7.854;2023-04-03T00:18:56;10.13;;;6.53;;
2452;SDS011;63678;47.994;7.854;2023-04-03T00:21:28;8.75;;;6.40;;
2452;SDS011;63678;47.994;7.854;2023-04-03T00:24:01;8.10;;;5.88;;
2452;SDS011;63678;47.994;7.854;2023-04-03T00:26:36;9.80;;;6.07;;
2452;SDS011;63678;47.994;7.854;2023-04-03T00:29:09;9.88;;;6.03;;
2452;SDS011;63678;47.994;7.854;2023-04-03T00:31:44;8.95;;;6.10;;
2452;SDS011;63678;47.994;7.854;2023-04-03T00:34:16;9.63;;;5.43;;
2452;SDS011;63678;47.994;7.854;2023-04-03T00:36:49;9.50;;;6.18;;
2452;SDS011;63678;47.994;7.854;2023-04-03T00:39:23;8.57;;;5.47;;
2452;SDS011;63678;47.994;7.854;2023-04-03T00:41:56;9.30;;;6.57;;
2452;SDS011;63678;47.994;7.854;2023-04-03T00:47:03;8.27;;;5.82;;
2452;SDS011;63678;47.994;7.854;2023-04-03T00:49:38;8.70;;;6.10;;
2452;SDS011;63678;47.994;7.854;2023-04-03T00:52:14;10.13;;;5.60;;
2452;SDS011;63678;47.994;7.854;2023-04-03T00:54:50;8.70;;;5.75;;
2452;SDS011;63678;47.994;7.854;2023-04-03T00:57:27;7.45;;;5.82;;
2452;SDS011;63678;47.994;7.854;2023-04-03T01:00:07;8.13;;;5.78;;
2452;SDS011;63678;47.994;7.854;2023-04-03T01:02:43;8.80;;;5.65;;
2452;SDS011;63678;47.994;7.854;2023-04-03T01:09:29;9.23;;;5.28;;
2452;SDS011;63678;47.994;7.854;2023-04-03T01:12:23;7.50;;;5.10;;
2452;SDS011;63678;47.994;7.854;2023-04-03T01:17:50;8.40;;;5.25;;
2452;SDS011;63678;47.994;7.854;2023-04-03T01:25:44;7.18;;;5.13;;
2452;SDS011;63678;47.994;7.854;2023-04-03T01:28:26;8.13;;;5.35;;
2452;SDS011;63678;47.994;7.854;2023-04-03T01:31:08;10.05;;;6.10;;
2452;SDS011;63678;47.994;7.854;2023-04-03T01:33:45;8.30;;;5.47;;
2452;SDS011;63678;47.994;7.854;2023-04-03T01:36:19;8.00;;;5.13;;
2452;SDS011;63678;47.994;7.854;2023-04-03T01:38:56;8.45;;;5.30;;
2452;SDS011;63678;47.994;7.854;2023-04-03T01:41:32;7.78;;;4.85;;
2452;SDS011;63678;47.994;7.854;2023-04-03T01:44:12;7.07;;;5.28;;
2452;SDS011;63678;47.994;7.854;2023-04-03T01:46:45;7.07;;;5.10;;
2452;SDS011;63678;47.994;7.854;2023-04-03T01:49:19;7.82;;;4.68;;
2452;SDS011;63678;47.994;7.854;2023-04-03T01:51:51;6.85;;;4.40;;
2452;SDS011;63678;47.994;7.854;2023-04-03T01:54:23;8.20;;;4.43;;
2452;SDS011;63678;47.994;7.854;2023-04-03T01:56:56;7.65;;;4.13;;
2452;SDS011;63678;47.994;7.854;2023-04-03T01:59:28;6.50;;;4.20;;
2452;SDS011;63678;47.994;7.854;2023-04-03T02:02:01;6.95;;;4.15;;
2452;SDS011;63678;47.994;7.854;2023-04-03T02:04:33;7.53;;;4.22;;
2452;SDS011;63678;47.994;7.854;2023-04-03T02:07:06;7.38;;;4.18;;
2452;SDS011;63678;47.994;7.854;2023-04-03T02:09:38;7.20;;;3.75;;
2452;SDS011;63678;47.994;7.854;2023-04-03T02:12:13;6.43;;;3.93;;
2452;SDS011;63678;47.994;7.854;2023-04-03T02:14:45;7.65;;;4.30;;
2452;SDS011;63678;47.994;7.854;2023-04-03T02:17:19;8.05;;;4.35;;
2452;SDS011;63678;47.994;7.854;2023-04-03T02:19:51;6.57;;;4.13;;
2452;SDS011;63678;47.994;7.854;2023-04-03T02:22:23;7.95;;;4.45;;
2452;SDS011;63678;47.994;7.854;2023-04-03T02:24:56;6.13;;;4.23;;
2452;SDS011;63678;47.994;7.854;2023-04-03T02:27:28;7.47;;;4.25;;
2452;SDS011;63678;47.994;7.854;2023-04-03T02:30:03;6.38;;;4.22;;
2452;SDS011;63678;47.994;7.854;2023-04-03T02:32:38;6.97;;;4.45;;
2452;SDS011;63678;47.994;7.854;2023-04-03T02:35:10;8.05;;;4.50;;
2452;SDS011;63678;47.994;7.854;2023-04-03T02:37:44;7.07;;;4.57;;
2452;SDS011;63678;47.994;7.854;2023-04-03T02:40:18;6.20;;;3.80;;
2452;SDS011;63678;47.994;7.854;2023-04-03T02:42:50;6.45;;;4.10;;
2452;SDS011;63678;47.994;7.854;2023-04-03T02:45:23;7.53;;;4.82;;
2452;SDS011;63678;47.994;7.854;2023-04-03T02:47:56;7.40;;;4.30;;
2452;SDS011;63678;47.994;7.854;2023-04-03T02:50:29;7.90;;;5.43;;
2452;SDS011;63678;47.994;7.854;2023-04-03T02:53:01;7.47;;;4.50;;
2452;SDS011;63678;47.994;7.854;2023-04-03T02:55:34;7.05;;;4.88;;
2452;SDS011;63678;47.994;7.854;2023-04-03T02:58:06;7.85;;;4.40;;
2452;SDS011;63678;47.994;7.854;2023-04-03T03:00:40;7.60;;;4.60;;
2452;SDS011;63678;47.994;7.854;2023-04-03T03:03:13;7.20;;;4.57;;
2452;SDS011;63678;47.994;7.854;2023-04-03T03:05:46;8.13;;;4.82;;
2452;SDS011;63678;47.994;7.854;2023-04-03T03:08:19;8.23;;;4.80;;
2452;SDS011;63678;47.994;7.854;2023-04-03T03:10:52;7.03;;;4.53;;
2452;SDS011;63678;47.994;7.854;2023-04-03T03:13:25;9.77;;;5.15;;
2452;SDS011;63678;47.994;7.854;2023-04-03T03:16:01;7.00;;;4.67;;
2452;SDS011;63678;47.994;7.854;2023-04-03T03:18:34;6.60;;;4.40;;
2452;SDS011;63678;47.994;7.854;2023-04-03T03:21:08;7.45;;;4.90;;
2452;SDS011;63678;47.994;7.854;2023-04-03T03:23:42;8.75;;;4.40;;
2452;SDS011;63678;47.994;7.854;2023-04-03T03:26:15;6.63;;;4.32;;
2452;SDS011;63678;47.994;7.854;2023-04-03T03:28:47;6.00;;;4.30;;
2452;SDS011;63678;47.994;7.854;2023-04-03T03:31:20;6.50;;;4.18;;
2452;SDS011;63678;47.994;7.854;2023-04-03T03:33:53;7.25;;;4.55;;
2452;SDS011;63678;47.994;7.854;2023-04-03T03:36:26;7.65;;;4.57;;
2452;SDS011;63678;47.994;7.854;2023-04-03T03:38:58;6.80;;;4.30;;
2452;SDS011;63678;47.994;7.854;2023-04-03T03:41:31;7.30;;;4.60;;
2452;SDS011;63678;47.994;7.854;2023-04-03T03:44:04;6.28;;;4.65;;
2452;SDS011;63678;47.994;7.854;2023-04-03T03:46:37;9.05;;;4.30;;
2452;SDS011;63678;47.994;7.854;2023-04-03T03:49:09;7.28;;;4.35;;
2452;SDS011;63678;47.994;7.854;2023-04-03T03:51:44;6.78;;;4.57;;
2452;SDS011;63678;47.994;7.854;2023-04-03T03:54:17;8.73;;;4.90;;
2452;SDS011;63678;47.994;7.854;2023-04-03T03:56:50;6.57;;;3.90;;
2452;SDS011;63678;47.994;7.854;2023-04-03T03:59:23;7.10;;;4.32;;
2452;SDS011;63678;47.994;7.854;2023-04-03T04:01:56;7.22;;;4.07;;
2452;SDS011;63678;47.994;7.854;2023-04-03T04:04:29;6.57;;;3.90;;
2452;SDS011;63678;47.994;7.854;2023-04-03T04:07:02;7.27;;;3.83;;
2452;SDS011;63678;47.994;7.854;2023-04-03T04:09:36;6.55;;;3.95;;
2452;SDS011;63678;47.994;7.854;2023-04-03T04:12:09;7.82;;;3.65;;
2452;SDS011;63678;47.994;7.854;2023-04-03T04:14:42;6.68;;;3.58;;
2452;SDS011;63678;47.994;7.854;2023-04-03T04:17:19;6.15;;;3.88;;
2452;SDS011;63678;47.994;7.854;2023-04-03T04:19:52;5.53;;;3.70;;
2452;SDS011;63678;47.994;7.854;2023-04-03T04:22:25;5.30;;;3.50;;
2452;SDS011;63678;47.994;7.854;2023-04-03T04:24:58;5.80;;;3.53;;
2452;SDS011;63678;47.994;7.854;2023-04-03T04:27:31;6.25;;;3.65;;
2452;SDS011;63678;47.994;7.854;2023-04-03T04:30:04;5.97;;;3.67;;
2452;SDS011;63678;47.994;7.854;2023-04-03T04:32:37;6.07;;;3.97;;
2452;SDS011;63678;47.994;7.854;2023-04-03T04:35:10;5.22;;;3.67;;
2452;SDS011;63678;47.994;7.854;2023-04-03T04:37:47;8.85;;;4.50;;
2452;SDS011;63678;47.994;7.854;2023-04-03T04:40:20;5.75;;;3.58;;
2452;SDS011;63678;47.994;7.854;2023-04-03T04:42:53;5.75;;;3.53;;
2452;SDS011;63678;47.994;7.854;2023-04-03T04:45:25;6.53;;;4.03;;
2452;SDS011;63678;47.994;7.854;2023-04-03T04:48:22;8.85;;;4.28;;
2452;SDS011;63678;47.994;7.854;2023-04-03T04:50:54;6.40;;;3.78;;
2452;SDS011;63678;47.994;7.854;2023-04-03T04:53:28;5.72;;;3.63;;
2452;SDS011;63678;47.994;7.854;2023-04-03T04:56:01;6.13;;;3.83;;
2452;SDS011;63678;47.994;7.854;2023-04-03T04:58:54;6.27;;;4.07;;
2452;SDS011;63678;47.994;7.854;2023-04-03T05:01:29;5.75;;;3.80;;
2452;SDS011;63678;47.994;7.854;2023-04-03T05:04:11;6.63;;;3.33;;
2452;SDS011;63678;47.994;7.854;2023-04-03T05:06:44;6.82;;;4.30;;
2452;SDS011;63678;47.994;7.854;2023-04-03T05:09:22;7.85;;;4.00;;
2452;SDS011;63678;47.994;7.854;2023-04-03T05:11:56;5.77;;;3.90;;
2452;SDS011;63678;47.994;7.854;2023-04-03T05:14:32;5.82;;;4.03;;
2452;SDS011;63678;47.994;7.854;2023-04-03T05:17:09;6.03;;;3.60;;
2452;SDS011;63678;47.994;7.854;2023-04-03T05:19:46;6.57;;;4.10;;
2452;SDS011;63678;47.994;7.854;2023-04-03T05:22:20;6.93;;;4.45;;
2452;SDS011;63678;47.994;7.854;2023-04-03T05:24:54;7.83;;;4.77;;
2452;SDS011;63678;47.994;7.854;2023-04-03T05:27:27;6.63;;;4.10;;
2452;SDS011;63678;47.994;7.854;2023-04-03T05:30:02;6.20;;;4.20;;
2452;SDS011;63678;47.994;7.854;2023-04-03T05:32:37;6.18;;;3.85;;
2452;SDS011;63678;47.994;7.854;2023-04-03T05:35:21;7.25;;;4.20;;
2452;SDS011;63678;47.994;7.854;2023-04-03T05:37:57;6.87;;;3.90;;
2452;SDS011;63678;47.994;7.854;2023-04-03T05:40:29;8.27;;;4.15;;
2452;SDS011;63678;47.994;7.854;2023-04-03T05:43:02;7.15;;;4.43;;
2452;SDS011;63678;47.994;7.854;2023-04-03T05:45:38;5.70;;;3.92;;
2452;SDS011;63678;47.994;7.854;2023-04-03T05:48:11;6.53;;;4.10;;
2452;SDS011;63678;47.994;7.854;2023-04-03T05:50:44;5.87;;;3.57;;
2452;SDS011;63678;47.994;7.854;2023-04-03T05:53:25;6.50;;;4.35;;
2452;SDS011;63678;47.994;7.854;2023-04-03T05:56:07;5.95;;;3.90;;
2452;SDS011;63678;47.994;7.854;2023-04-03T05:58:43;6.60;;;4.05;;
2452;SDS011;63678;47.994;7.854;2023-04-03T06:01:15;6.75;;;4.00;;
2452;SDS011;63678;47.994;7.854;2023-04-03T06:03:49;6.73;;;4.43;;
2452;SDS011;63678;47.994;7.854;2023-04-03T06:06:22;7.05;;;3.88;;
2452;SDS011;63678;47.994;7.854;2023-04-03T06:08:56;8.10;;;4.28;;
2452;SDS011;63678;47.994;7.854;2023-04-03T06:11:29;7.53;;;4.45;;
2452;SDS011;63678;47.994;7.854;2023-04-03T06:14:20;8.98;;;4.40;;
2452;SDS011;63678;47.994;7.854;2023-04-03T06:16:55;8.10;;;4.17;;
2452;SDS011;63678;47.994;7.854;2023-04-03T06:19:28;6.75;;;3.83;;
2452;SDS011;63678;47.994;7.854;2023-04-03T06:22:02;6.80;;;4.30;;
2452;SDS011;63678;47.994;7.854;2023-04-03T06:24:56;7.03;;;4.40;;
2452;SDS011;63678;47.994;7.854;2023-04-03T06:27:29;7.70;;;4.25;;
2452;SDS011;63678;47.994;7.854;2023-04-03T06:30:02;5.93;;;3.67;;
2452;SDS011;63678;47.994;7.854;2023-04-03T06:32:36;5.75;;;3.90;;
2452;SDS011;63678;47.994;7.854;2023-04-03T06:35:09;5.57;;;3.35;;
2452;SDS011;63678;47.994;7.854;2023-04-03T06:37:43;6.43;;;3.95;;
2452;SDS011;63678;47.994;7.854;2023-04-03T06:40:18;7.43;;;3.85;;
2452;SDS011;63678;47.994;7.854;2023-04-03T06:42:55;6.40;;;4.00;;
2452;SDS011;63678;47.994;7.854;2023-04-03T06:45:27;6.40;;;4.30;;
2452;SDS011;63678;47.994;7.854;2023-04-03T06:47:59;8.13;;;4.28;;
2452;SDS011;63678;47.994;7.854;2023-04-03T06:50:32;7.32;;;4.15;;
2452;SDS011;63678;47.994;7.854;2023-04-03T06:53:05;5.90;;;3.90;;
2452;SDS011;63678;47.994;7.854;2023-04-03T06:55:38;7.30;;;4.00;;
2452;SDS011;63678;47.994;7.854;2023-04-03T06:58:32;5.80;;;3.30;;
2452;SDS011;63678;47.994;7.854;2023-04-03T07:01:05;5.78;;;3.50;;
2452;SDS011;63678;47.994;7.854;2023-04-03T07:03:40;5.60;;;3.85;;
2452;SDS011;63678;47.994;7.854;2023-04-03T07:06:13;5.38;;;3.75;;
2452;SDS011;63678;47.994;7.854;2023-04-03T07:08:50;5.50;;;3.73;;
2452;SDS011;63678;47.994;7.854;2023-04-03T07:11:23;5.25;;;3.03;;
2452;SDS011;63678;47.994;7.854;2023-04-03T07:13:57;6.18;;;3.00;;
2452;SDS011;63678;47.994;7.854;2023-04-03T07:16:29;5.90;;;4.10;;
2452;SDS011;63678;47.994;7.854;2023-04-03T07:19:02;4.82;;;2.67;;
2452;SDS011;63678;47.994;7.854;2023-04-03T07:21:36;6.27;;;3.10;;
2452;SDS011;63678;47.994;7.854;2023-04-03T07:24:30;5.10;;;3.20;;
2452;SDS011;63678;47.994;7.854;2023-04-03T07:27:02;5.68;;;3.70;;
2452;SDS011;63678;47.994;7.854;2023-04-03T07:29:35;7.00;;;3.60;;
2452;SDS011;63678;47.994;7.854;2023-04-03T07:32:09;5.38;;;3.25;;
2452;SDS011;63678;47.994;7.854;2023-04-03T07:35:02;4.83;;;2.97;;
2452;SDS011;63678;47.994;7.854;2023-04-03T07:37:35;4.88;;;2.90;;
2452;SDS011;63678;47.994;7.854;2023-04-03T07:40:08;4.93;;;3.30;;
2452;SDS011;63678;47.994;7.854;2023-04-03T07:42:43;4.90;;;3.50;;
2452;SDS011;63678;47.994;7.854;2023-04-03T07:45:16;5.88;;;3.88;;
2452;SDS011;63678;47.994;7.854;2023-04-03T07:47:49;5.63;;;3.60;;
2452;SDS011;63678;47.994;7.854;2023-04-03T07:50:23;6.40;;;3.50;;
2452;SDS011;63678;47.994;7.854;2023-04-03T07:52:59;7.93;;;3.67;;
2452;SDS011;63678;47.994;7.854;2023-04-03T07:55:32;6.15;;;3.75;;
2452;SDS011;63678;47.994;7.854;2023-04-03T07:58:06;6.47;;;4.10;;
2452;SDS011;63678;47.994;7.854;2023-04-03T08:00:39;5.40;;;3.57;;
2452;SDS011;63678;47.994;7.854;2023-04-03T08:03:12;6.45;;;3.78;;
2452;SDS011;63678;47.994;7.854;2023-04-03T08:05:47;5.80;;;3.55;;
2452;SDS011;63678;47.994;7.854;2023-04-03T08:08:21;8.35;;;3.75;;
2452;SDS011;63678;47.994;7.854;2023-04-03T08:10:54;6.43;;;3.53;;
2452;SDS011;63678;47.994;7.854;2023-04-03T08:13:46;6.55;;;3.38;;
2452;SDS011;63678;47.994;7.854;2023-04-03T08:16:20;8.18;;;3.80;;
2452;SDS011;63678;47.994;7.854;2023-04-03T08:19:15;5.70;;;3.55;;
2452;SDS011;63678;47.994;7.854;2023-04-03T08:21:57;5.13;;;3.20;;
2452;SDS011;63678;47.994;7.854;2023-04-03T08:24:31;5.38;;;3.60;;
2452;SDS011;63678;47.994;7.854;2023-04-03T08:27:08;6.85;;;3.53;;
2452;SDS011;63678;47.994;7.854;2023-04-03T08:29:41;7.70;;;4.53;;
2452;SDS011;63678;47.994;7.854;2023-04-03T08:32:14;6.35;;;4.15;;
2452;SDS011;63678;47.994;7.854;2023-04-03T08:34:46;6.43;;;4.07;;
2452;SDS011;63678;47.994;7.854;2023-04-03T08:37:19;5.85;;;3.88;;
2452;SDS011;63678;47.994;7.854;2023-04-03T08:39:53;6.20;;;4.13;;
2452;SDS011;63678;47.994;7.854;2023-04-03T08:42:54;6.45;;;3.80;;
2452;SDS011;63678;47.994;7.854;2023-04-03T08:46:06;6.47;;;3.97;;
2452;SDS011;63678;47.994;7.854;2023-04-03T08:48:47;5.95;;;4.10;;
2452;SDS011;63678;47.994;7.854;2023-04-03T08:51:22;7.72;;;4.47;;
2452;SDS011;63678;47.994;7.854;2023-04-03T08:53:57;7.05;;;4.18;;
2452;SDS011;63678;47.994;7.854;2023-04-03T08:56:36;6.57;;;4.20;;
2452;SDS011;63678;47.994;7.854;2023-04-03T08:59:29;6.68;;;4.65;;
2452;SDS011;63678;47.994;7.854;2023-04-03T09:02:21;6.88;;;4.55;;
2452;SDS011;63678;47.994;7.854;2023-04-03T09:05:26;12.45;;;5.00;;
2452;SDS011;63678;47.994;7.854;2023-04-03T09:08:41;6.07;;;4.00;;
2452;SDS011;63678;47.994;7.854;2023-04-03T09:11:27;16.67;;;4.22;;
2452;SDS011;63678;47.994;7.854;2023-04-03T09:17:24;7.18;;;4.07;;
2452;SDS011;63678;47.994;7.854;2023-04-03T09:20:16;6.50;;;4.07;;
2452;SDS011;63678;47.994;7.854;2023-04-03T09:23:19;7.07;;;4.18;;
2452;SDS011;63678;47.994;7.854;2023-04-03T09:26:13;9.02;;;4.38;;
2452;SDS011;63678;47.994;7.854;2023-04-03T09:28:49;6.47;;;4.38;;
2452;SDS011;63678;47.994;7.854;2023-04-03T09:31:23;6.28;;;4.22;;
2452;SDS011;63678;47.994;7.854;2023-04-03T09:34:03;5.90;;;3.88;;
2452;SDS011;63678;47.994;7.854;2023-04-03T09:36:45;5.55;;;3.65;;
2452;SDS011;63678;47.994;7.854;2023-04-03T09:39:27;5.70;;;3.70;;
2452;SDS011;63678;47.994;7.854;2023-04-03T09:42:01;5.63;;;3.80;;
2452;SDS011;63678;47.994;7.854;2023-04-03T09:44:55;6.43;;;4.10;;
2452;SDS011;63678;47.994;7.854;2023-04-03T09:47:33;5.40;;;3.38;;
2452;SDS011;63678;47.994;7.854;2023-04-03T09:50:10;5.05;;;3.40;;
2452;SDS011;63678;47.994;7.854;2023-04-03T09:52:53;6.60;;;3.30;;
2452;SDS011;63678;47.994;7.854;2023-04-03T09:55:26;5.57;;;3.42;;
2452;SDS011;63678;47.994;7.854;2023-04-03T09:58:02;4.40;;;2.88;;
2452;SDS011;63678;47.994;7.854;2023-04-03T10:00:39;4.93;;;3.00;;
2452;SDS011;63678;47.994;7.854;2023-04-03T10:03:26;5.07;;;3.47;;
2452;SDS011;63678;47.994;7.854;2023-04-03T10:06:21;6.35;;;3.38;;
2452;SDS011;63678;47.994;7.854;2023-04-03T10:08:59;5.60;;;3.45;;
2452;SDS011;63678;47.994;7.854;2023-04-03T10:11:36;4.85;;;3.00;;
2452;SDS011;63678;47.994;7.854;2023-04-03T10:14:10;6.25;;;3.53;;
2452;SDS011;63678;47.994;7.854;2023-04-03T10:16:51;5.50;;;3.38;;
2452;SDS011;63678;47.994;7.854;2023-04-03T10:19:42;7.90;;;3.80;;
2452;SDS011;63678;47.994;7.854;2023-04-03T10:22:42;4.78;;;2.92;;
2452;SDS011;63678;47.994;7.854;2023-04-03T10:25:35;4.40;;;2.75;;
2452;SDS011;63678;47.994;7.854;2023-04-03T10:28:27;6.20;;;3.00;;
2452;SDS011;63678;47.994;7.854;2023-04-03T10:34:40;4.85;;;2.85;;
2452;SDS011;63678;47.994;7.854;2023-04-03T10:37:40;6.18;;;3.10;;
2452;SDS011;63678;47.994;7.854;2023-04-03T10:46:12;5.27;;;3.83;;
2452;SDS011;63678;47.994;7.854;2023-04-03T10:57:07;5.00;;;3.15;;
2452;SDS011;63678;47.994;7.854;2023-04-03T10:59:45;5.47;;;2.80;;
2452;SDS011;63678;47.994;7.854;2023-04-03T11:02:53;5.50;;;2.83;;
2452;SDS011;63678;47.994;7.854;2023-04-03T11:05:34;4.72;;;3.10;;
2452;SDS011;63678;47.994;7.854;2023-04-03T11:08:21;5.95;;;3.13;;
2452;SDS011;63678;47.994;7.854;2023-04-03T11:16:41;5.57;;;3.10;;
2452;SDS011;63678;47.994;7.854;2023-04-03T11:19:29;7.03;;;3.47;;
2452;SDS011;63678;47.994;7.854;2023-04-03T11:22:30;4.60;;;2.85;;
2452;SDS011;63678;47.994;7.854;2023-04-03T11:27:43;7.50;;;4.33;;
2452;SDS011;63678;47.994;7.854;2023-04-03T11:30:32;5.88;;;3.47;;
2452;SDS011;63678;47.994;7.854;2023-04-03T11:36:10;5.75;;;3.00;;
2452;SDS011;63678;47.994;7.854;2023-04-03T11:42:16;5.20;;;3.20;;
2452;SDS011;63678;47.994;7.854;2023-04-03T11:47:55;6.30;;;3.47;;
2452;SDS011;63678;47.994;7.854;2023-04-03T11:50:47;5.55;;;3.45;;
2452;SDS011;63678;47.994;7.854;2023-04-03T11:53:28;5.55;;;3.20;;
2452;SDS011;63678;47.994;7.854;2023-04-03T12:01:49;5.15;;;2.90;;
2452;SDS011;63678;47.994;7.854;2023-04-03T12:04:27;6.25;;;3.35;;
2452;SDS011;63678;47.994;7.854;2023-04-03T12:07:01;5.68;;;3.20;;
2452;SDS011;63678;47.994;7.854;2023-04-03T12:09:56;4.90;;;3.17;;
2452;SDS011;63678;47.994;7.854;2023-04-03T12:12:34;6.22;;;3.40;;
2452;SDS011;63678;47.994;7.854;2023-04-03T12:15:23;5.88;;;3.20;;
2452;SDS011;63678;47.994;7.854;2023-04-03T12:18:31;5.80;;;3.20;;
2452;SDS011;63678;47.994;7.854;2023-04-03T12:24:24;5.38;;;3.83;;
2452;SDS011;63678;47.994;7.854;2023-04-03T12:36:03;6.10;;;3.35;;
2452;SDS011;63678;47.994;7.854;2023-04-03T12:38:54;6.30;;;3.13;;
2452;SDS011;63678;47.994;7.854;2023-04-03T12:42:00;5.03;;;3.33;;
2452;SDS011;63678;47.994;7.854;2023-04-03T12:47:33;5.20;;;3.20;;
2452;SDS011;63678;47.994;7.854;2023-04-03T12:50:24;5.75;;;3.42;;
2452;SDS011;63678;47.994;7.854;2023-04-03T12:53:06;5.00;;;3.17;;
2452;SDS011;63678;47.994;7.854;2023-04-03T12:55:45;6.38;;;3.75;;
2452;SDS011;63678;47.994;7.854;2023-04-03T12:58:22;4.68;;;2.90;;
2452;SDS011;63678;47.994;7.854;2023-04-03T13:01:11;6.70;;;3.60;;
2452;SDS011;63678;47.994;7.854;2023-04-03T13:03:56;5.70;;;4.25;;
2452;SDS011;63678;47.994;7.854;2023-04-03T13:06:31;7.10;;;3.50;;
2452;SDS011;63678;47.994;7.854;2023-04-03T13:09:23;4.72;;;3.08;;
2452;SDS011;63678;47.994;7.854;2023-04-03T13:14:56;5.20;;;3.20;;
2452;SDS011;63678;47.994;7.854;2023-04-03T13:17:31;5.47;;;3.40;;
2452;SDS011;63678;47.994;7.854;2023-04-03T13:20:12;5.68;;;3.65;;
2452;SDS011;63678;47.994;7.854;2023-04-03T13:25:41;5.43;;;3.35;;
2452;SDS011;63678;47.994;7.854;2023-04-03T13:28:20;5.13;;;3.40;;
2452;SDS011;63678;47.994;7.854;2023-04-03T13:33:36;8.23;;;4.60;;
2452;SDS011;63678;47.994;7.854;2023-04-03T13:36:16;5.95;;;3.47;;
2452;SDS011;63678;47.994;7.854;2023-04-03T13:39:03;5.68;;;3.63;;
2452;SDS011;63678;47.994;7.854;2023-04-03T13:41:52;5.90;;;3.38;;
2452;SDS011;63678;47.994;7.854;2023-04-03T13:44:32;9.15;;;3.70;;
2452;SDS011;63678;47.994;7.854;2023-04-03T13:49:43;5.95;;;3.28;;
2452;SDS011;63678;47.994;7.854;2023-04-03T13:52:34;5.95;;;3.38;;
2452;SDS011;63678;47.994;7.854;2023-04-03T13:55:25;4.60;;;2.97;;
2452;SDS011;63678;47.994;7.854;2023-04-03T13:58:16;6.20;;;3.85;;
2452;SDS011;63678;47.994;7.854;2023-04-03T14:06:24;4.88;;;3.30;;
2452;SDS011;63678;47.994;7.854;2023-04-03T14:08:56;5.32;;;3.50;;
2452;SDS011;63678;47.994;7.854;2023-04-03T14:11:31;5.70;;;3.72;;
2452;SDS011;63678;47.994;7.854;2023-04-03T14:14:09;5.83;;;3.30;;
2452;SDS011;63678;47.994;7.854;2023-04-03T14:16:56;5.80;;;2.97;;
2452;SDS011;63678;47.994;7.854;2023-04-03T14:19:32;5.07;;;3.38;;
2452;SDS011;63678;47.994;7.854;2023-04-03T14:22:26;5.60;;;3.00;;
2452;SDS011;63678;47.994;7.854;2023-04-03T14:25:01;4.70;;;3.47;;
2452;SDS011;63678;47.994;7.854;2023-04-03T14:27:38;6.57;;;3.20;;
2452;SDS011;63678;47.994;7.854;2023-04-03T14:30:18;5.18;;;3.03;;
2452;SDS011;63678;47.994;7.854;2023-04-03T14:32:53;6.32;;;3.75;;
2452;SDS011;63678;47.994;7.854;2023-04-03T14:35:26;5.32;;;3.22;;
2452;SDS011;63678;47.994;7.854;2023-04-03T14:38:00;5.25;;;3.40;;
2452;SDS011;63678;47.994;7.854;2023-04-03T14:40:32;6.33;;;3.90;;
2452;SDS011;63678;47.994;7.854;2023-04-03T14:43:05;8.13;;;3.60;;
2452;SDS011;63678;47.994;7.854;2023-04-03T14:45:37;5.78;;;3.22;;
2452;SDS011;63678;47.994;7.854;2023-04-03T14:48:16;6.30;;;3.72;;
2452;SDS011;63678;47.994;7.854;2023-04-03T14:50:53;6.13;;;3.40;;
2452;SDS011;63678;47.994;7.854;2023-04-03T14:53:36;5.65;;;3.47;;
2452;SDS011;63678;47.994;7.854;2023-04-03T14:56:11;8.75;;;3.67;;
2452;SDS011;63678;47.994;7.854;2023-04-03T14:58:46;8.63;;;4.05;;
2452;SDS011;63678;47.994;7.854;2023-04-03T15:01:22;5.45;;;3.42;;
2452;SDS011;63678;47.994;7.854;2023-04-03T15:03:54;5.32;;;3.38;;
2452;SDS011;63678;47.994;7.854;2023-04-03T15:06:27;7.47;;;3.70;;
2452;SDS011;63678;47.994;7.854;2023-04-03T15:08:59;6.57;;;3.78;;
2452;SDS011;63678;47.994;7.854;2023-04-03T15:11:31;8.48;;;4.88;;
2452;SDS011;63678;47.994;7.854;2023-04-03T15:14:03;6.20;;;3.50;;
2452;SDS011;63678;47.994;7.854;2023-04-03T15:16:36;7.03;;;3.63;;
2452;SDS011;63678;47.994;7.854;2023-04-03T15:19:08;4.53;;;3.17;;
2452;SDS011;63678;47.994;7.854;2023-04-03T15:21:42;6.15;;;3.75;;
2452;SDS011;63678;47.994;7.854;2023-04-03T15:24:15;7.95;;;4.00;;
2452;SDS011;63678;47.994;7.854;2023-04-03T15:26:47;7.03;;;4.07;;
2452;SDS011;63678;47.994;7.854;2023-04-03T15:29:19;5.65;;;3.90;;
2452;SDS011;63678;47.994;7.854;2023-04-03T15:31:51;5.97;;;3.57;;
2452;SDS011;63678;47.994;7.854;2023-04-03T15:34:25;6.22;;;3.50;;
2452;SDS011;63678;47.994;7.854;2023-04-03T15:36:58;5.38;;;3.22;;
2452;SDS011;63678;47.994;7.854;2023-04-03T15:39:30;5.90;;;3.45;;
2452;SDS011;63678;47.994;7.854;2023-04-03T15:42:03;5.43;;;3.95;;
2452;SDS011;63678;47.994;7.854;2023-04-03T15:44:38;6.23;;;3.60;;
2452;SDS011;63678;47.994;7.854;2023-04-03T15:47:11;5.13;;;3.22;;
2452;SDS011;63678;47.994;7.854;2023-04-03T15:49:44;5.90;;;3.47;;
2452;SDS011;63678;47.994;7.854;2023-04-03T15:52:16;5.88;;;3.67;;
2452;SDS011;63678;47.994;7.854;2023-04-03T15:54:49;6.78;;;3.80;;
2452;SDS011;63678;47.994;7.854;2023-04-03T15:57:21;5.70;;;3.60;;
2452;SDS011;63678;47.994;7.854;2023-04-03T15:59:57;6.35;;;3.20;;
2452;SDS011;63678;47.994;7.854;2023-04-03T16:02:30;8.40;;;3.67;;
2452;SDS011;63678;47.994;7.854;2023-04-03T16:05:02;5.88;;;3.47;;
2452;SDS011;63678;47.994;7.854;2023-04-03T16:07:36;5.65;;;3.45;;
2452;SDS011;63678;47.994;7.854;2023-04-03T16:10:15;6.40;;;3.53;;
2452;SDS011;63678;47.994;7.854;2023-04-03T16:12:48;6.53;;;3.45;;
2452;SDS011;63678;47.994;7.854;2023-04-03T16:15:21;6.95;;;3.72;;
2452;SDS011;63678;47.994;7.854;2023-04-03T16:17:54;5.03;;;3.20;;
2452;SDS011;63678;47.994;7.854;2023-04-03T16:20:26;7.90;;;3.40;;
2452;SDS011;63678;47.994;7.854;2023-04-03T16:23:00;6.57;;;3.50;;
2452;SDS011;63678;47.994;7.854;2023-04-03T16:25:32;6.20;;;3.53;;
2452;SDS011;63678;47.994;7.854;2023-04-03T16:28:05;6.15;;;3.55;;
2452;SDS011;63678;47.994;7.854;2023-04-03T16:30:37;5.97;;;2.95;;
2452;SDS011;63678;47.994;7.854;2023-04-03T16:33:14;6.40;;;3.10;;
2452;SDS011;63678;47.994;7.854;2023-04-03T16:35:47;5.33;;;3.23;;
2452;SDS011;63678;47.994;7.854;2023-04-03T16:38:21;5.32;;;3.40;;
2452;SDS011;63678;47.994;7.854;2023-04-03T16:40:53;6.70;;;4.05;;
2452;SDS011;63678;47.994;7.854;2023-04-03T16:43:28;5.63;;;3.20;;
2452;SDS011;63678;47.994;7.854;2023-04-03T16:46:01;9.35;;;4.00;;
2452;SDS011;63678;47.994;7.854;2023-04-03T16:48:34;6.00;;;3.73;;
2452;SDS011;63678;47.994;7.854;2023-04-03T16:51:06;5.07;;;2.85;;
2452;SDS011;63678;47.994;7.854;2023-04-03T16:53:38;5.78;;;2.88;;
2452;SDS011;63678;47.994;7.854;2023-04-03T16:56:11;5.90;;;3.05;;
2452;SDS011;63678;47.994;7.854;2023-04-03T16:58:43;4.75;;;3.10;;
2452;SDS011;63678;47.994;7.854;2023-04-03T17:01:35;5.87;;;3.10;;
2452;SDS011;63678;47.994;7.854;2023-04-03T17:04:07;5.38;;;3.20;;
2452;SDS011;63678;47.994;7.854;2023-04-03T17:06:40;5.97;;;3.08;;
2452;SDS011;63678;47.994;7.854;2023-04-03T17:09:12;6.75;;;3.30;;
2452;SDS011;63678;47.994;7.854;2023-04-03T17:11:45;6.43;;;3.78;;
2452;SDS011;63678;47.994;7.854;2023-04-03T17:14:19;5.47;;;3.30;;
2452;SDS011;63678;47.994;7.854;2023-04-03T17:16:52;4.72;;;2.78;;
2452;SDS011;63678;47.994;7.854;2023-04-03T17:19:25;5.47;;;3.42;;
2452;SDS011;63678;47.994;7.854;2023-04-03T17:22:19;6.10;;;3.30;;
2452;SDS011;63678;47.994;7.854;2023-04-03T17:24:52;7.30;;;3.67;;
2452;SDS011;63678;47.994;7.854;2023-04-03T17:27:24;5.23;;;2.80;;
2452;SDS011;63678;47.994;7.854;2023-04-03T17:29:57;4.80;;;3.08;;
2452;SDS011;63678;47.994;7.854;2023-04-03T17:32:30;6.53;;;3.10;;